Time;durP1;ratioP1;P1;durP2;ratioP2;P2;SDS_P1;SDS_P2;PMS_P1;PMS_P2;Temp;Humidity;BMP_temperature;BMP_pressure;BME280_temperature;BME280_humidity;BME280_pressure;Samples;Min_cycle;Max_cycle;Signal;HPM_P1;HPM_P2
2022/01/21 00:00:29;;;;;;;16.27;2.63;;;1.60;99.90;;;;;;5031185;28;20072;-49
2022/01/21 00:02:55;;;;;;;14.02;2.35;;;1.50;99.90;;;;;;5031306;28;20037;-49
2022/01/21 00:05:23;;;;;;;19.63;2.67;;;1.50;99.90;;;;;;5031494;28;20068;-53
2022/01/21 00:07:49;;;;;;;17.10;3.10;;;1.50;99.90;;;;;;5031325;28;20484;-55
2022/01/21 00:10:14;;;;;;;20.70;2.80;;;1.50;99.90;;;;;;5031030;28;20044;-53
2022/01/21 00:12:40;;;;;;;14.77;2.72;;;1.40;99.90;;;;;;5030873;28;20463;-53
2022/01/21 00:15:10;;;;;;;23.27;3.15;;;1.40;99.90;;;;;;5029090;28;20057;-51
2022/01/21 00:17:36;;;;;;;12.73;2.90;;;1.40;99.90;;;;;;5031134;28;20073;-52
2022/01/21 00:31:03;;;;;;;15.13;2.05;;;1.20;99.90;;;;;;5029981;28;20421;-53
2022/01/21 00:33:29;;;;;;;17.88;2.75;;;1.20;99.90;;;;;;5029625;28;20033;-50
2022/01/21 00:35:55;;;;;;;20.48;2.60;;;1.20;99.90;;;;;;5030831;28;20037;-51
2022/01/21 00:38:23;;;;;;;16.02;2.72;;;1.20;99.90;;;;;;5030786;28;20069;-49
2022/01/21 00:40:49;;;;;;;16.20;2.92;;;1.30;99.90;;;;;;5030519;28;20034;-51
2022/01/21 00:43:20;;;;;;;21.70;2.90;;;1.20;99.90;;;;;;5031113;28;20034;-51
2022/01/21 00:45:46;;;;;;;16.98;2.38;;;1.30;99.90;;;;;;5030802;28;20038;-51
2022/01/21 00:48:12;;;;;;;21.15;2.65;;;1.30;99.90;;;;;;5030674;28;20519;-54
2022/01/21 00:50:38;;;;;;;17.00;2.53;;;1.40;99.90;;;;;;5030267;28;20041;-56
2022/01/21 00:53:03;;;;;;;15.32;3.22;;;1.40;99.90;;;;;;5030704;28;20041;-53
2022/01/21 00:55:29;;;;;;;14.90;2.17;;;1.40;99.90;;;;;;5030787;28;20036;-53
2022/01/21 00:57:55;;;;;;;14.68;2.70;;;1.40;99.90;;;;;;5030290;28;20048;-53
2022/01/21 01:00:21;;;;;;;15.82;2.10;;;1.40;99.90;;;;;;5032578;28;20048;-56
2022/01/21 01:02:47;;;;;;;12.43;2.20;;;1.40;99.90;;;;;;5034640;28;20132;-53
2022/01/21 01:05:13;;;;;;;15.65;2.22;;;1.40;99.90;;;;;;5034588;28;20112;-53
2022/01/21 01:07:39;;;;;;;20.25;2.40;;;1.40;99.90;;;;;;5034472;28;20113;-51
2022/01/21 01:10:09;;;;;;;19.17;2.67;;;1.40;99.90;;;;;;5034646;28;20462;-55
2022/01/21 01:20:55;;;;;;;18.38;2.45;;;1.40;99.90;;;;;;5020163;28;20528;-54
2022/01/21 01:23:49;;;;;;;14.98;1.92;;;1.40;99.90;;;;;;5020875;28;20064;-55
2022/01/21 01:28:59;;;;;;;18.95;3.10;;;1.50;99.90;;;;;;5014029;28;20459;-54
2022/01/21 01:31:25;;;;;;;21.98;2.60;;;1.40;99.90;;;;;;5016887;28;20042;-53
2022/01/21 01:33:50;;;;;;;17.83;2.50;;;1.40;99.90;;;;;;5014397;28;20049;-55
2022/01/21 01:36:16;;;;;;;21.00;2.70;;;1.40;99.90;;;;;;5029291;28;20037;-54
2022/01/21 01:41:35;;;;;;;16.13;2.35;;;1.40;99.90;;;;;;5015533;28;20045;-53
2022/01/21 01:49:33;;;;;;;11.35;1.92;;;1.50;99.90;;;;;;5013950;28;20042;-52
2022/01/21 01:52:00;;;;;;;21.05;2.17;;;1.50;99.90;;;;;;5013579;28;20073;-53
2022/01/21 01:54:29;;;;;;;11.15;1.95;;;1.50;99.90;;;;;;5027194;28;20048;-54
2022/01/21 01:56:56;;;;;;;20.38;2.67;;;1.50;99.90;;;;;;5030443;28;20045;-51
2022/01/21 01:59:23;;;;;;;15.05;1.80;;;1.50;99.90;;;;;;5029019;28;20087;-52
2022/01/21 02:01:53;;;;;;;14.40;1.80;;;1.50;99.90;;;;;;5027138;28;20513;-54
2022/01/21 02:04:18;;;;;;;16.63;2.40;;;1.50;99.90;;;;;;5013408;28;20038;-53
2022/01/21 02:06:44;;;;;;;12.95;1.58;;;1.60;99.90;;;;;;5005055;28;20049;-51
2022/01/21 02:09:10;;;;;;;16.67;2.08;;;1.60;99.90;;;;;;5027677;28;20461;-53
2022/01/21 02:11:35;;;;;;;10.95;1.52;;;1.60;99.90;;;;;;5009497;28;20042;-55
2022/01/21 02:14:07;;;;;;;19.17;2.00;;;1.60;99.90;;;;;;5012840;28;20497;-55
2022/01/21 02:16:45;;;;;;;12.02;2.13;;;1.60;99.90;;;;;;5012966;28;20069;-53
2022/01/21 02:21:55;;;;;;;;;;;1.50;99.90;;;;;;5013700;28;20091;-52
2022/01/21 02:24:41;;;;;;;13.57;1.80;;;1.50;99.90;;;;;;5012899;28;19921;-49
2022/01/21 02:27:06;;;;;;;10.38;1.73;;;1.50;99.90;;;;;;5012747;28;20041;-50
2022/01/21 02:29:43;;;;;;;13.77;2.05;;;1.50;99.90;;;;;;4995105;28;20120;-53
2022/01/21 02:32:09;;;;;;;13.77;2.22;;;1.50;99.90;;;;;;5013056;28;20081;-52
2022/01/21 02:34:35;;;;;;;12.13;1.45;;;1.50;99.90;;;;;;5011534;28;20068;-50
2022/01/21 02:37:01;;;;;;;15.57;1.92;;;1.50;99.90;;;;;;5013053;28;20045;-51
2022/01/21 02:39:26;;;;;;;13.00;1.40;;;1.50;99.90;;;;;;5012747;28;20034;-51
2022/01/21 02:41:52;;;;;;;11.57;1.67;;;1.60;99.90;;;;;;5012630;28;20096;-54
2022/01/21 02:44:18;;;;;;;13.55;1.55;;;1.60;99.90;;;;;;5012540;28;20042;-49
2022/01/21 02:46:46;;;;;;;12.55;1.85;;;1.60;99.90;;;;;;5010105;28;20050;-55
2022/01/21 02:49:12;;;;;;;14.48;1.58;;;1.60;99.90;;;;;;5011286;28;20497;-55
2022/01/21 02:51:38;;;;;;;11.30;1.77;;;1.70;99.90;;;;;;5012309;28;20081;-54
2022/01/21 02:54:04;;;;;;;10.45;1.77;;;1.90;99.90;;;;;;5012079;28;20088;-55
2022/01/21 02:56:31;;;;;;;12.73;1.65;;;1.60;99.90;;;;;;5012590;28;20523;-55
2022/01/21 02:58:57;;;;;;;19.98;2.13;;;1.70;99.90;;;;;;5012278;28;20030;-52
2022/01/21 03:01:24;;;;;;;14.50;1.65;;;1.70;99.90;;;;;;5011514;28;20084;-53
2022/01/21 03:03:50;;;;;;;14.52;1.75;;;1.60;99.90;;;;;;5012198;28;20046;-55
2022/01/21 03:06:18;;;;;;;12.05;1.90;;;1.70;99.90;;;;;;5012005;28;20037;-54
2022/01/21 03:08:47;;;;;;;14.55;1.63;;;1.60;99.90;;;;;;5010624;28;20050;-54
2022/01/21 03:11:12;;;;;;;14.40;1.45;;;1.60;99.90;;;;;;5012469;28;20468;-51
2022/01/21 03:13:42;;;;;;;13.55;1.70;;;1.60;99.90;;;;;;5012039;28;20038;-55
2022/01/21 03:16:09;;;;;;;16.65;1.83;;;1.50;99.90;;;;;;5027952;28;20061;-51
2022/01/21 03:18:35;;;;;;;14.45;1.60;;;1.50;99.90;;;;;;5031691;28;20037;-54
2022/01/21 03:21:00;;;;;;;12.00;1.67;;;1.50;99.90;;;;;;5031939;28;21261;-55
2022/01/21 03:23:28;;;;;;;13.98;1.92;;;1.40;99.90;;;;;;5026526;28;20044;-52
2022/01/21 03:25:54;;;;;;;12.88;1.70;;;1.40;99.90;;;;;;5030247;28;20392;-50
2022/01/21 03:28:20;;;;;;;15.90;2.05;;;1.40;99.90;;;;;;5031798;28;20037;-53
2022/01/21 03:30:46;;;;;;;14.07;1.70;;;1.40;99.90;;;;;;5031210;28;20041;-51
2022/01/21 03:33:13;;;;;;;15.88;1.50;;;1.40;99.90;;;;;;5025024;28;20107;-53
2022/01/21 03:35:39;;;;;;;16.60;1.58;;;1.30;99.90;;;;;;5031233;28;20049;-51
2022/01/21 03:38:05;;;;;;;11.98;1.48;;;1.30;99.90;;;;;;5031520;28;20556;-53
2022/01/21 03:40:31;;;;;;;16.95;1.73;;;1.30;99.90;;;;;;5031312;28;20030;-51
2022/01/21 03:42:57;;;;;;;15.55;1.90;;;1.30;99.90;;;;;;5031677;28;20043;-51
2022/01/21 03:45:23;;;;;;;14.25;1.50;;;1.30;99.90;;;;;;5031108;28;20431;-50
2022/01/21 03:47:48;;;;;;;15.43;1.75;;;1.30;99.90;;;;;;5031695;28;20587;-51
2022/01/21 03:50:32;;;;;;;11.57;1.75;;;1.30;99.90;;;;;;5031599;28;20045;-52
2022/01/21 03:53:03;;;;;;;15.07;1.98;;;1.30;99.90;;;;;;5030734;28;20087;-51
2022/01/21 03:55:30;;;;;;;12.07;1.73;;;1.30;99.90;;;;;;5016898;28;20045;-52
2022/01/21 03:57:57;;;;;;;18.08;1.63;;;1.40;99.90;;;;;;5031376;28;20037;-49
2022/01/21 04:00:28;;;;;;;14.18;1.83;;;1.30;99.90;;;;;;5029622;28;20479;-54
2022/01/21 04:02:54;;;;;;;11.32;1.58;;;1.30;99.90;;;;;;5018157;28;20120;-51
2022/01/21 04:05:20;;;;;;;11.73;1.73;;;1.40;99.90;;;;;;5018505;28;20503;-54
2022/01/21 04:07:46;;;;;;;13.57;1.83;;;1.40;99.90;;;;;;5031341;28;20033;-53
2022/01/21 04:10:12;;;;;;;13.13;1.67;;;1.40;99.90;;;;;;5031206;28;20041;-52
2022/01/21 04:12:37;;;;;;;12.02;1.80;;;1.30;99.90;;;;;;5031106;28;20419;-53
2022/01/21 04:15:04;;;;;;;14.75;1.70;;;1.30;99.90;;;;;;5031014;28;20500;-53
2022/01/21 04:17:30;;;;;;;11.48;1.50;;;1.30;99.90;;;;;;5029672;28;20037;-53
2022/01/21 04:19:56;;;;;;;15.30;2.10;;;1.30;99.90;;;;;;5030274;28;20045;-55
2022/01/21 04:22:22;;;;;;;13.77;1.75;;;1.30;99.90;;;;;;5030690;28;20033;-54
2022/01/21 04:24:49;;;;;;;12.40;1.48;;;1.30;99.90;;;;;;5030692;28;20404;-53
2022/01/21 04:27:18;;;;;;;19.23;1.80;;;1.40;99.90;;;;;;5030613;28;20045;-54
2022/01/21 04:29:44;;;;;;;14.25;1.40;;;1.40;99.90;;;;;;5030898;28;20103;-51
2022/01/21 04:32:10;;;;;;;14.30;1.55;;;1.40;99.90;;;;;;5030599;28;20045;-52
2022/01/21 04:34:37;;;;;;;16.83;1.70;;;1.40;99.90;;;;;;5032361;28;20052;-52
2022/01/21 04:37:08;;;;;;;12.88;1.35;;;1.40;99.90;;;;;;5034945;28;20508;-55
2022/01/21 04:39:39;;;;;;;13.15;2.08;;;1.40;99.90;;;;;;5017380;28;20046;-56
2022/01/21 04:47:32;;;;;;;14.10;1.38;;;1.40;99.90;;;;;;5034933;28;20121;-54
2022/01/21 04:49:58;;;;;;;12.32;1.48;;;1.40;99.90;;;;;;5034966;28;20035;-54
2022/01/21 04:52:23;;;;;;;12.13;1.48;;;1.50;99.90;;;;;;5034692;28;20137;-53
2022/01/21 04:54:50;;;;;;;10.98;1.38;;;1.70;99.90;;;;;;5034407;28;20041;-54
2022/01/21 04:57:17;;;;;;;15.63;1.85;;;1.50;99.90;;;;;;5034785;28;20045;-51
2022/01/21 04:59:43;;;;;;;13.57;1.92;;;1.50;99.90;;;;;;5034328;28;20112;-54
2022/01/21 05:02:09;;;;;;;13.32;1.58;;;1.50;99.90;;;;;;5032072;28;20049;-52
2022/01/21 05:04:36;;;;;;;12.02;1.40;;;1.60;99.90;;;;;;5033820;28;20049;-54
2022/01/21 05:07:06;;;;;;;11.60;1.52;;;1.60;99.90;;;;;;5034496;28;20067;-50
2022/01/21 05:09:34;;;;;;;12.40;1.50;;;1.60;99.90;;;;;;5034587;28;20053;-51
2022/01/21 05:12:07;;;;;;;13.73;1.75;;;1.70;99.90;;;;;;5033271;28;20476;-52
2022/01/21 05:17:09;;;;;;;11.63;1.33;;;1.80;99.90;;;;;;5033998;28;20049;-51
2022/01/21 05:19:36;;;;;;;12.73;1.60;;;1.80;99.90;;;;;;5033975;28;20045;-52
2022/01/21 05:22:02;;;;;;;11.82;1.55;;;1.80;99.90;;;;;;5032400;28;20235;-53
2022/01/21 05:24:27;;;;;;;10.73;1.67;;;1.80;99.90;;;;;;5033748;28;20472;-54
2022/01/21 05:26:54;;;;;;;12.73;1.40;;;1.80;99.90;;;;;;5034258;28;20072;-54
2022/01/21 05:29:22;;;;;;;12.27;1.60;;;1.80;99.90;;;;;;5034137;28;20049;-50
2022/01/21 05:31:48;;;;;;;15.45;2.33;;;1.70;99.90;;;;;;5033648;28;20384;-54
2022/01/21 05:34:14;;;;;;;6.80;1.58;;;1.70;99.90;;;;;;5033870;28;20077;-54
2022/01/21 05:36:41;;;;;;;9.55;1.42;;;1.70;99.90;;;;;;5034058;28;20076;-50
2022/01/21 05:39:18;;;;;;;13.18;1.58;;;1.60;99.90;;;;;;5033604;28;20041;-51
2022/01/21 05:41:50;;;;;;;15.70;1.95;;;1.60;99.90;;;;;;5032526;28;20384;-52
2022/01/21 05:46:22;;;;;;;15.32;1.75;;;1.50;99.90;;;;;;5033918;28;20041;-54
2022/01/21 05:47:06;;;;;;;14.07;1.58;;;1.50;99.90;;;;;;5031913;28;20533;-49
2022/01/21 05:49:33;;;;;;;17.15;1.48;;;1.40;99.90;;;;;;5033521;28;20052;-51
2022/01/21 05:52:19;;;;;;;12.48;1.67;;;1.40;99.90;;;;;;5033736;28;20041;-52
2022/01/21 05:54:46;;;;;;;12.25;1.30;;;1.40;99.90;;;;;;5033485;28;20389;-55
2022/01/21 05:57:16;;;;;;;12.13;1.35;;;1.40;99.90;;;;;;5033445;28;20087;-54
2022/01/21 05:59:42;;;;;;;9.02;1.80;;;1.40;99.90;;;;;;5033556;28;20052;-51
2022/01/21 06:02:10;;;;;;;10.63;1.40;;;1.40;99.90;;;;;;5033133;28;20041;-53
2022/01/21 06:04:38;;;;;;;11.43;1.45;;;1.40;99.90;;;;;;5033173;28;20048;-54
2022/01/21 06:07:05;;;;;;;14.90;1.45;;;1.40;99.90;;;;;;5033560;28;20045;-52
2022/01/21 06:09:31;;;;;;;14.68;1.40;;;1.30;99.90;;;;;;5032923;28;20041;-50
2022/01/21 06:11:57;;;;;;;15.75;1.65;;;1.30;99.90;;;;;;5032930;28;20377;-52
2022/01/21 06:14:25;;;;;;;12.13;1.90;;;1.30;99.90;;;;;;5033352;28;20069;-52
2022/01/21 06:16:51;;;;;;;11.00;1.38;;;1.40;99.90;;;;;;5033360;28;20099;-55
2022/01/21 06:19:35;;;;;;;11.70;1.75;;;1.40;99.90;;;;;;5029823;28;20034;-53
2022/01/21 06:22:01;;;;;;;;;;;1.30;99.90;;;;;;5033299;28;20040;-52
2022/01/21 06:24:27;;;;;;;16.77;1.60;;;1.30;99.90;;;;;;5032463;28;19921;-53
2022/01/21 06:26:58;;;;;;;10.40;1.27;;;1.30;99.90;;;;;;5033038;28;20037;-53
2022/01/21 06:29:24;;;;;;;14.63;1.10;;;1.40;99.90;;;;;;5032933;28;20484;-51
2022/01/21 06:31:50;;;;;;;8.00;1.20;;;1.40;99.90;;;;;;5030004;28;20033;-54
2022/01/21 06:34:15;;;;;;;14.43;1.70;;;1.50;99.90;;;;;;5032644;28;20044;-51
2022/01/21 06:36:41;;;;;;;15.07;1.63;;;1.60;99.90;;;;;;5028380;28;20079;-52
2022/01/21 06:39:06;;;;;;;11.27;1.30;;;1.70;99.90;;;;;;5032633;28;20480;-52
2022/01/21 06:41:32;;;;;;;11.18;1.52;;;2.00;99.90;;;;;;5032556;28;20069;-53
2022/01/21 06:43:58;;;;;;;11.77;1.20;;;1.80;99.90;;;;;;5032433;28;20041;-53
2022/01/21 06:46:24;;;;;;;13.02;1.25;;;1.80;99.90;;;;;;5030984;28;20033;-53
2022/01/21 06:48:49;;;;;;;16.63;2.00;;;1.90;99.90;;;;;;5028126;28;20080;-54
2022/01/21 06:51:15;;;;;;;10.68;1.35;;;1.90;99.90;;;;;;5032270;28;20056;-55
2022/01/21 06:53:40;;;;;;;10.88;1.45;;;2.00;99.90;;;;;;5031974;28;20038;-55
2022/01/21 06:56:06;;;;;;;13.65;1.70;;;1.80;99.90;;;;;;5032251;28;20076;-55
2022/01/21 06:58:32;;;;;;;11.70;1.27;;;1.80;99.90;;;;;;5030638;28;20563;-50
2022/01/21 07:00:58;;;;;;;9.65;1.20;;;1.70;99.90;;;;;;5032346;28;20044;-49
2022/01/21 07:03:24;;;;;;;12.30;1.40;;;1.70;99.90;;;;;;5032256;28;20037;-53
2022/01/21 07:05:50;;;;;;;12.15;1.60;;;1.70;99.90;;;;;;5032011;28;20034;-51
2022/01/21 07:08:16;;;;;;;13.32;1.70;;;1.60;99.90;;;;;;5031876;28;20043;-52
2022/01/21 07:10:43;;;;;;;14.93;1.55;;;1.60;99.90;;;;;;5031772;28;20045;-50
2022/01/21 07:13:09;;;;;;;9.63;1.40;;;1.50;99.90;;;;;;5031973;28;20521;-49
2022/01/21 07:15:35;;;;;;;10.55;1.65;;;1.50;99.90;;;;;;5031708;28;20514;-53
2022/01/21 07:18:00;;;;;;;12.52;1.80;;;1.40;99.90;;;;;;5030424;28;20076;-53
2022/01/21 07:20:26;;;;;;;14.15;1.65;;;1.40;99.90;;;;;;5031933;28;20048;-53
2022/01/21 07:22:52;;;;;;;12.13;1.95;;;1.40;99.90;;;;;;5031851;28;20037;-53
2022/01/21 07:25:18;;;;;;;15.23;1.88;;;1.40;99.90;;;;;;5031448;28;20550;-52
2022/01/21 07:27:46;;;;;;;9.70;1.58;;;1.40;99.90;;;;;;5031810;28;20132;-52
2022/01/21 07:30:13;;;;;;;19.50;1.77;;;1.40;99.90;;;;;;5031677;28;20037;-54
2022/01/21 07:32:40;;;;;;;15.98;1.70;;;1.30;99.90;;;;;;5030304;28;20065;-55
2022/01/21 07:35:09;;;;;;;21.10;2.08;;;1.30;99.90;;;;;;5031955;28;20488;-54
2022/01/21 07:37:38;;;;;;;8.35;1.50;;;1.30;99.90;;;;;;5031896;28;20503;-56
2022/01/21 07:40:05;;;;;;;12.35;1.67;;;1.30;99.90;;;;;;5031333;28;20439;-52
2022/01/21 07:42:31;;;;;;;12.73;1.35;;;1.30;99.90;;;;;;5031011;28;20044;-52
2022/01/21 07:44:57;;;;;;;14.10;1.48;;;1.40;99.90;;;;;;5031046;28;20460;-53
2022/01/21 07:47:23;;;;;;;11.75;1.80;;;1.30;99.90;;;;;;5029490;28;20041;-55
2022/01/21 07:49:48;;;;;;;13.32;1.55;;;1.30;99.90;;;;;;5021895;28;20126;-52
2022/01/21 07:52:15;;;;;;;15.45;1.52;;;1.40;99.90;;;;;;5024581;28;20068;-49
2022/01/21 07:54:41;;;;;;;17.38;2.03;;;1.40;99.90;;;;;;5025693;28;20073;-53
2022/01/21 07:57:08;;;;;;;10.32;1.70;;;1.50;99.90;;;;;;5029530;28;20492;-55
2022/01/21 07:59:34;;;;;;;13.73;2.10;;;1.50;99.90;;;;;;5029708;28;20489;-52
2022/01/21 08:02:00;;;;;;;13.27;1.70;;;1.50;99.90;;;;;;5030539;28;20091;-54
2022/01/21 08:04:26;;;;;;;14.20;1.65;;;1.50;99.90;;;;;;5031249;28;20044;-52
2022/01/21 08:06:51;;;;;;;13.15;1.40;;;1.50;99.90;;;;;;5030455;28;20384;-51
2022/01/21 08:09:23;;;;;;;13.07;1.88;;;1.50;99.90;;;;;;5027567;28;20033;-54
2022/01/21 08:11:50;;;;;;;20.38;1.95;;;1.50;99.90;;;;;;5026590;28;20598;-51
2022/01/21 08:14:15;;;;;;;16.52;2.17;;;1.50;99.90;;;;;;5027154;28;20135;-52
2022/01/21 08:16:41;;;;;;;15.65;2.42;;;1.50;99.90;;;;;;5026309;28;20137;-52
2022/01/21 08:19:07;;;;;;;14.30;1.75;;;1.50;99.90;;;;;;5030575;28;20046;-53
2022/01/21 08:21:32;;;;;;;15.98;2.20;;;1.50;99.90;;;;;;5030404;28;20380;-52
2022/01/21 08:23:58;;;;;;;14.63;2.15;;;1.50;99.90;;;;;;5028404;28;20033;-49
2022/01/21 08:26:28;;;;;;;15.82;2.20;;;1.50;99.90;;;;;;5029747;28;20060;-50
2022/01/21 08:28:54;;;;;;;14.27;2.40;;;1.50;99.90;;;;;;5030493;28;20072;-52
2022/01/21 08:31:20;;;;;;;20.20;2.50;;;1.50;99.90;;;;;;5025805;28;20124;-52
2022/01/21 08:33:45;;;;;;;16.38;1.90;;;1.50;99.90;;;;;;5025439;28;20055;-52
2022/01/21 08:36:11;;;;;;;18.10;2.63;;;1.50;99.90;;;;;;5025104;28;20037;-52
2022/01/21 08:38:38;;;;;;;17.88;2.45;;;1.60;99.90;;;;;;5020869;28;20052;-53
2022/01/21 08:41:05;;;;;;;13.25;1.98;;;1.60;99.90;;;;;;5029232;28;20503;-52
2022/01/21 08:43:30;;;;;;;16.20;1.83;;;1.60;99.90;;;;;;5022863;28;20069;-54
2022/01/21 08:45:56;;;;;;;17.52;1.98;;;1.70;99.90;;;;;;5026787;28;20465;-54
2022/01/21 08:48:22;;;;;;;15.57;2.03;;;1.80;99.90;;;;;;5031089;28;20087;-49
2022/01/21 08:50:48;;;;;;;16.42;2.35;;;1.90;99.90;;;;;;5027809;28;20041;-53
2022/01/21 08:55:58;;;;;;;22.83;2.90;;;2.00;99.90;;;;;;5028955;28;20048;-52
2022/01/21 08:58:25;;;;;;;18.58;2.40;;;2.10;99.90;;;;;;5029838;28;20045;-49
2022/01/21 09:00:52;;;;;;;17.83;2.67;;;2.20;99.90;;;;;;5030275;28;20038;-54
2022/01/21 09:03:17;;;;;;;13.82;2.30;;;2.30;99.90;;;;;;5032233;28;20061;-53
2022/01/21 09:05:48;;;;;;;20.02;2.72;;;2.40;99.90;;;;;;5029898;28;20038;-56
2022/01/21 09:08:15;;;;;;;14.52;3.80;;;3.10;99.90;;;;;;5021126;28;20041;-53
2022/01/21 09:10:41;;;;;;;20.95;3.45;;;2.70;99.90;;;;;;5022648;28;20052;-52
2022/01/21 09:13:06;;;;;;;18.13;3.10;;;2.80;99.90;;;;;;5017378;28;20045;-48
2022/01/21 09:15:34;;;;;;;17.58;2.88;;;3.00;99.90;;;;;;5016471;28;20416;-51
2022/01/21 09:18:04;;;;;;;20.77;2.45;;;2.90;99.90;;;;;;5018216;28;20154;-51
2022/01/21 09:20:31;;;;;;;13.18;2.42;;;3.00;99.90;;;;;;5018516;28;20057;-52
2022/01/21 09:22:56;;;;;;;18.20;2.65;;;3.00;99.90;;;;;;5016243;28;20607;-50
2022/01/21 09:25:22;;;;;;;18.58;2.55;;;3.00;99.90;;;;;;5020979;28;20053;-53
2022/01/21 09:27:48;;;;;;;15.75;2.90;;;3.10;99.90;;;;;;5022766;28;20411;-48
2022/01/21 09:30:13;;;;;;;21.20;2.67;;;3.10;99.90;;;;;;5023088;28;20095;-50
2022/01/21 09:32:39;;;;;;;20.67;2.85;;;3.10;99.90;;;;;;5021001;28;20037;-49
2022/01/21 09:35:05;;;;;;;15.77;2.20;;;3.10;99.90;;;;;;5019180;28;20123;-51
2022/01/21 09:37:31;;;;;;;13.88;2.30;;;3.10;99.90;;;;;;5018100;28;20068;-53
2022/01/21 09:39:57;;;;;;;16.92;3.58;;;3.10;99.90;;;;;;5022158;28;20045;-53
2022/01/21 09:42:22;;;;;;;18.10;2.83;;;3.10;99.90;;;;;;5021326;28;20033;-50
2022/01/21 09:44:49;;;;;;;16.70;2.55;;;3.10;99.90;;;;;;5022021;28;20399;-52
2022/01/21 09:47:18;;;;;;;25.75;3.08;;;3.20;99.90;;;;;;5022164;28;20041;-51
2022/01/21 09:49:44;;;;;;;21.45;3.28;;;3.30;99.90;;;;;;5020198;28;20065;-50
2022/01/21 09:52:13;;;;;;;19.52;3.00;;;3.30;99.90;;;;;;5018507;28;20049;-51
2022/01/21 09:54:47;;;;;;;14.80;2.58;;;3.40;99.90;;;;;;5021735;28;20472;-51
2022/01/21 09:57:18;;;;;;;20.85;3.72;;;3.50;99.90;;;;;;5020299;28;20060;-51
2022/01/21 09:59:45;;;;;;;23.27;3.67;;;3.60;99.90;;;;;;5018851;28;20044;-51
2022/01/21 10:02:11;;;;;;;24.67;3.30;;;3.70;99.90;;;;;;5021120;28;20099;-53
2022/01/21 10:04:39;;;;;;;19.48;2.88;;;3.70;99.90;;;;;;5020914;28;20032;-54
2022/01/21 10:07:05;;;;;;;26.35;4.65;;;3.80;99.90;;;;;;5022591;28;20484;-51
2022/01/21 10:09:32;;;;;;;27.27;5.35;;;3.90;99.90;;;;;;5021234;28;20077;-52
2022/01/21 10:11:59;;;;;;;25.40;4.80;;;4.00;99.90;;;;;;5020326;28;20484;-52
2022/01/21 10:14:27;;;;;;;28.25;4.35;;;4.00;99.90;;;;;;5020160;28;20049;-55
2022/01/21 10:16:54;;;;;;;25.48;5.93;;;4.10;99.90;;;;;;5020883;28;20103;-53
2022/01/21 10:19:25;;;;;;;44.88;14.82;;;4.20;99.90;;;;;;5022624;28;20049;-51
2022/01/21 10:22:10;;;;;;;51.58;14.93;;;4.20;99.90;;;;;;5020526;28;20117;-49
2022/01/21 10:24:50;;;;;;;50.10;14.13;;;4.30;99.90;;;;;;5019161;28;20048;-50
2022/01/21 10:27:27;;;;;;;35.10;10.40;;;4.40;99.90;;;;;;5020062;28;20481;-51
2022/01/21 10:29:53;;;;;;;38.10;8.25;;;4.40;99.90;;;;;;5021010;28;20037;-52
2022/01/21 10:32:51;;;;;;;26.83;4.90;;;4.50;99.90;;;;;;5013619;28;20124;-52
2022/01/21 10:35:26;;;;;;;26.70;3.95;;;4.70;99.90;;;;;;4978626;28;20045;-52
2022/01/21 10:37:56;;;;;;;22.13;3.92;;;4.80;99.90;;;;;;5021877;28;20037;-55
2022/01/21 10:40:22;;;;;;;25.80;3.80;;;4.80;99.90;;;;;;5020000;28;20049;-51
2022/01/21 10:42:49;;;;;;;31.58;4.40;;;4.90;99.90;;;;;;5018811;28;20377;-47
2022/01/21 10:45:15;;;;;;;21.45;4.15;;;5.00;99.90;;;;;;5019812;28;20033;-53
2022/01/21 10:47:47;;;;;;;27.85;4.75;;;5.20;99.90;;;;;;5018760;28;20116;-52
2022/01/21 10:50:14;;;;;;;27.67;4.72;;;5.40;99.90;;;;;;5017777;28;20041;-51
2022/01/21 10:52:49;;;;;;;24.08;4.78;;;5.40;99.90;;;;;;5019515;28;20037;-51
2022/01/21 10:55:44;;;;;;;25.73;4.50;;;5.50;99.90;;;;;;5017572;28;20041;-53
2022/01/21 10:58:14;;;;;;;;;;;5.60;99.90;;;;;;5010682;28;20083;-53
2022/01/21 11:01:04;;;;;;;20.20;2.90;;;5.60;99.90;;;;;;5020031;28;20016;-53
2022/01/21 11:03:30;;;;;;;15.13;2.90;;;5.80;99.90;;;;;;5019813;28;20038;-53
2022/01/21 11:06:12;;;;;;;23.55;2.47;;;6.00;99.90;;;;;;5021871;28;20041;-50
2022/01/21 11:08:37;;;;;;;23.40;2.65;;;6.10;99.90;;;;;;5020379;28;20167;-52
2022/01/21 11:11:03;;;;;;;31.55;2.67;;;6.20;99.90;;;;;;5018723;28;20128;-54
2022/01/21 11:13:31;;;;;;;15.23;2.25;;;6.20;99.90;;;;;;5015654;28;20046;-51
2022/01/21 11:16:06;;;;;;;24.73;2.55;;;6.20;99.90;;;;;;5017793;28;20099;-53
2022/01/21 11:18:33;;;;;;;26.90;2.92;;;6.10;99.90;;;;;;5020813;28;20043;-51
2022/01/21 11:21:06;;;;;;;23.70;2.20;;;6.00;99.90;;;;;;5019038;28;20049;-48
2022/01/21 11:23:33;;;;;;;17.10;2.42;;;6.00;99.90;;;;;;5020461;28;20033;-50
2022/01/21 11:26:03;;;;;;;22.17;2.45;;;6.00;99.90;;;;;;5018260;28;20120;-49
2022/01/21 11:28:46;;;;;;;18.50;2.58;;;6.00;99.90;;;;;;5018661;28;20081;-50
2022/01/21 11:31:13;;;;;;;21.57;2.70;;;6.00;99.90;;;;;;5018121;28;20040;-47
2022/01/21 11:33:39;;;;;;;17.10;2.35;;;6.10;99.90;;;;;;5019354;28;20025;-49
2022/01/21 11:36:06;;;;;;;19.50;2.63;;;6.10;99.90;;;;;;5017310;28;20079;-52
2022/01/21 11:38:37;;;;;;;22.73;3.10;;;6.10;99.90;;;;;;5018490;28;20102;-53
2022/01/21 11:41:07;;;;;;;20.58;2.67;;;6.10;99.90;;;;;;5014290;28;20037;-53
2022/01/21 11:43:34;;;;;;;13.35;3.63;;;6.10;99.90;;;;;;5016300;28;20029;-49
2022/01/21 11:46:17;;;;;;;19.65;2.72;;;6.10;99.90;;;;;;5015153;28;23748;-52
2022/01/21 11:49:08;;;;;;;20.27;3.35;;;6.10;99.90;;;;;;5015357;28;20061;-53
2022/01/21 11:51:36;;;;;;;20.95;2.85;;;6.10;99.90;;;;;;5016417;28;20068;-52
2022/01/21 11:54:05;;;;;;;22.42;3.05;;;6.20;99.90;;;;;;5015213;28;20075;-50
2022/01/21 11:56:43;;;;;;;27.55;3.53;;;6.20;99.90;;;;;;5013382;28;20110;-49
2022/01/21 12:01:53;;;;;;;21.63;3.17;;;6.30;99.90;;;;;;5017384;28;20047;-54
2022/01/21 12:04:38;;;;;;;22.83;3.35;;;6.30;99.90;;;;;;5029095;28;20041;-51
2022/01/21 12:07:24;;;;;;;19.48;3.03;;;6.30;99.90;;;;;;5028955;28;20045;-53
2022/01/21 12:09:56;;;;;;;22.60;2.65;;;6.40;99.90;;;;;;5029995;28;20041;-52
2022/01/21 12:12:24;;;;;;;15.68;2.40;;;6.30;99.90;;;;;;5030149;28;20045;-49
2022/01/21 12:14:56;;;;;;;20.63;2.63;;;6.30;99.90;;;;;;5030612;28;20037;-53
2022/01/21 12:17:37;;;;;;;18.95;2.78;;;6.30;99.90;;;;;;5030666;28;20508;-51
2022/01/21 12:20:05;;;;;;;22.98;2.85;;;6.30;99.90;;;;;;5031146;28;20041;-52
2022/01/21 12:22:30;;;;;;;23.70;3.53;;;6.30;99.90;;;;;;5031016;28;20033;-54
2022/01/21 12:25:13;;;;;;;19.88;2.80;;;6.30;99.90;;;;;;5029306;28;20526;-52
2022/01/21 12:27:59;;;;;;;19.88;2.17;;;6.30;99.90;;;;;;5027044;28;20470;-52
2022/01/21 12:30:30;;;;;;;18.33;3.63;;;6.40;99.90;;;;;;5027508;28;20631;-53
2022/01/21 12:33:03;;;;;;;24.42;3.13;;;6.40;99.90;;;;;;5027969;28;20136;-54
2022/01/21 12:35:30;;;;;;;20.20;3.00;;;6.40;99.90;;;;;;5027400;28;20041;-53
2022/01/21 12:40:54;;;;;;;15.13;2.40;;;6.40;99.90;;;;;;5030590;28;20064;-53
2022/01/21 12:43:42;;;;;;;24.85;2.85;;;6.30;99.90;;;;;;5030869;28;20076;-54
2022/01/21 12:46:14;;;;;;;21.58;2.78;;;6.30;99.90;;;;;;5029980;28;20037;-53
2022/01/21 12:48:44;;;;;;;25.27;2.97;;;6.30;99.90;;;;;;5030643;28;20026;-49
2022/01/21 12:51:16;;;;;;;27.95;2.60;;;6.30;99.90;;;;;;5030643;28;20063;-54
2022/01/21 12:56:57;;;;;;;17.75;2.30;;;6.40;99.90;;;;;;5033307;28;20149;-55
2022/01/21 12:59:28;;;;;;;18.23;2.28;;;6.40;99.90;;;;;;5032136;28;20484;-51
2022/01/21 13:01:56;;;;;;;22.77;3.10;;;6.40;99.90;;;;;;5031867;28;20527;-52
2022/01/21 13:04:43;;;;;;;17.55;2.30;;;6.40;99.90;;;;;;5031087;28;20049;-55
2022/01/21 13:07:12;;;;;;;24.50;2.92;;;6.40;99.90;;;;;;5032571;28;20044;-52
2022/01/21 13:10:01;;;;;;;16.38;2.95;;;6.40;99.90;;;;;;5034656;28;20045;-51
2022/01/21 13:12:57;;;;;;;19.42;2.60;;;6.40;99.90;;;;;;5034566;28;20045;-54
2022/01/21 13:15:37;;;;;;;17.17;2.30;;;6.40;99.90;;;;;;5034421;28;20131;-52
2022/01/21 13:18:02;;;;;;;20.13;2.95;;;6.40;99.90;;;;;;5034084;28;20516;-51
2022/01/21 13:20:31;;;;;;;17.58;2.35;;;6.50;99.90;;;;;;5033059;28;20040;-49
2022/01/21 13:22:57;;;;;;;17.00;2.70;;;6.50;99.90;;;;;;5034171;28;20628;-48
2022/01/21 13:25:25;;;;;;;21.02;2.65;;;6.50;99.90;;;;;;5033859;28;20116;-51
2022/01/21 13:27:53;;;;;;;16.98;2.55;;;6.50;99.90;;;;;;5032785;28;20037;-52
2022/01/21 13:30:25;;;;;;;23.85;3.30;;;6.50;99.90;;;;;;5033881;28;20481;-52
2022/01/21 13:33:04;;;;;;;18.15;3.40;;;6.50;99.90;;;;;;5033640;28;20041;-53
2022/01/21 13:35:31;;;;;;;23.20;3.53;;;6.50;99.90;;;;;;5034192;28;20052;-52
2022/01/21 13:38:06;;;;;;;20.77;2.60;;;6.50;99.90;;;;;;5033637;28;20124;-52
2022/01/21 13:40:37;;;;;;;28.17;4.22;;;6.50;99.90;;;;;;5034058;28;20361;-54
2022/01/21 13:43:11;;;;;;;17.48;3.05;;;6.50;99.90;;;;;;5031132;28;20041;-51
2022/01/21 13:45:39;;;;;;;20.52;4.00;;;6.50;99.90;;;;;;5040561;28;20071;-51
2022/01/21 13:48:06;;;;;;;19.40;4.40;;;6.60;99.90;;;;;;5033340;28;20106;-52